Aérodrome :
LOGIN :

S'inscrire | Disclaimer

   EN    FR    IT 

 










Légende :    VFR   VFR Marginal   IFR   IFR Intensif   IFR Très Intensif
Visi : 
Plafond : 
>= 8 km
>= 3000ft
5 à 8 km
1000 à 3000 ft
1500m à 5 km
500 à 1000 ft
800 à 1500m
200 à 500 ft
< 800m
< 200 ft
Symboles :   Orages  Brouillard  Fortes neiges  Fortes précipitations  Vent > 20 kt
SIGMETs :   Divers  Orages  Givrage  Turbulence  Onde Orograph.  Cendres Volcan.







- Altitude de l'aérodrome : 16 ft
- Code IATA : EAS


LESO - San Sebastian Fuenterrabia

DERNIER METAR :
  • 222230Z AUTO 23010KT 170V260 9999 -RA SCT017/// BKN028/// BKN045/// 07/06 Q1008

METARs EXPIRÉS :
  • 222200Z AUTO 22009KT 9000 -RA SCT019/// BKN025/// BKN033/// 07/05 Q1008
  • 222130Z AUTO 24009KT 210V280 9999 BKN023/// BKN033/// 07/05 Q1009
  • 222100Z AUTO 23009KT 200V260 8000 -RA SCT025/// BKN033/// BKN043/// 07/06 Q1009
  • 222030Z 23008KT 200V260 7000 RA SCT018 BKN026 07/06 Q1010
  • 222000Z 23009KT 200V260 7000 RA SCT015 BKN030 07/06 Q1010

TAF TAF LESO
Valide du 22 à 18h jusqu'au 23 à 18h UTC


221700Z 2218/2318 30009KT 9999 SCT020 BKN030 TX12/2310Z TN07/2303Z
TEMPO 2218/2318 30015G30KT
TEMPO 2303/2311 33028G43KT
TEMPO 2218/2318 3000 RA BKN014
PROB40
TEMPO 2218/2309 1500 +SHRA +RA SCT030TCU
Pas de NOTAMs connus pour ce terrain.
1 SIGMET publié pour la FIR Madrid (LECM) :
 
Onde orographique forte
LECM SIGMET 4 VALID 222223/230200 LEVA
LECM MADRID FIR SEV MTW FCST WI N3645 W00343 - N3710 W00346 - N3724 W00215 - N3656 W00211 - N3645 W00343 FL060/200 STNR NC=



MET'MAP, la Météo Aéronautique d'un coup d'oeil ! - Copyright ORBIFLY Décembre 2007 - Disclaimer

ORBIFLY MET'MAP TEAM :

Programmation & Développement : Alexandra Zaïnal
Conception & Développement : Baudouin d'Aumeries
Co-Programmation & Développement : Marc-Olivier Méhu
Soutien technique & logistique : Manuel Goepfert

Contact : metmap@orbifly.com




SOURCES & CREDITS :

   NOAA